sensor_id;sensor_type;location;lat;lon;timestamp;pressure;altitude;pressure_sealevel;temperature;humidity
73936;BME280;62287;50.858;0.252;2023-07-20T00:00:26;101426.36;;;18.44;42.01
73936;BME280;62287;50.858;0.252;2023-07-20T00:00:57;101426.36;;;18.79;42.05
73936;BME280;62287;50.858;0.252;2023-07-20T00:01:28;101428.17;;;18.90;42.19
73936;BME280;62287;50.858;0.252;2023-07-20T00:01:59;101427.49;;;18.85;41.74
73936;BME280;62287;50.858;0.252;2023-07-20T00:02:30;101424.89;;;18.74;42.03
73936;BME280;62287;50.858;0.252;2023-07-20T00:03:11;101425.36;;;18.29;42.49
73936;BME280;62287;50.858;0.252;2023-07-20T00:03:43;101426.48;;;18.76;42.39
73936;BME280;62287;50.858;0.252;2023-07-20T00:04:14;101425.24;;;18.58;42.34
73936;BME280;62287;50.858;0.252;2023-07-20T00:04:45;101427.89;;;18.62;42.00
73936;BME280;62287;50.858;0.252;2023-07-20T00:05:17;101429.33;;;19.03;42.11
73936;BME280;62287;50.858;0.252;2023-07-20T00:05:48;101428.63;;;18.77;41.96
73936;BME280;62287;50.858;0.252;2023-07-20T00:06:19;101429.61;;;18.79;42.01
73936;BME280;62287;50.858;0.252;2023-07-20T00:06:50;101431.17;;;18.36;42.34
73936;BME280;62287;50.858;0.252;2023-07-20T00:07:21;101430.64;;;18.75;42.36
73936;BME280;62287;50.858;0.252;2023-07-20T00:07:52;101428.42;;;18.38;42.47
73936;BME280;62287;50.858;0.252;2023-07-20T00:08:23;101430.81;;;18.66;42.53
73936;BME280;62287;50.858;0.252;2023-07-20T00:08:54;101431.51;;;19.00;42.34
73936;BME280;62287;50.858;0.252;2023-07-20T00:09:25;101430.18;;;19.64;42.09
73936;BME280;62287;50.858;0.252;2023-07-20T00:09:56;101430.51;;;18.32;42.01
73936;BME280;62287;50.858;0.252;2023-07-20T00:10:27;101430.34;;;18.88;42.21
73936;BME280;62287;50.858;0.252;2023-07-20T00:10:58;101431.63;;;18.94;42.34
73936;BME280;62287;50.858;0.252;2023-07-20T00:11:29;101432.61;;;19.00;42.26
73936;BME280;62287;50.858;0.252;2023-07-20T00:12:02;101431.76;;;18.90;42.52
73936;BME280;62287;50.858;0.252;2023-07-20T00:12:33;101429.32;;;18.96;42.23
73936;BME280;62287;50.858;0.252;2023-07-20T00:13:04;101428.74;;;18.83;42.56
73936;BME280;62287;50.858;0.252;2023-07-20T00:13:35;101429.47;;;18.99;42.21
73936;BME280;62287;50.858;0.252;2023-07-20T00:14:07;101428.38;;;18.79;42.34
73936;BME280;62287;50.858;0.252;2023-07-20T00:14:38;101426.63;;;19.30;42.04
73936;BME280;62287;50.858;0.252;2023-07-20T00:15:10;101427.71;;;19.32;42.16
73936;BME280;62287;50.858;0.252;2023-07-20T00:15:41;101427.20;;;19.32;42.11
73936;BME280;62287;50.858;0.252;2023-07-20T00:16:12;101425.29;;;19.29;42.19
73936;BME280;62287;50.858;0.252;2023-07-20T00:16:43;101425.84;;;19.47;42.17
73936;BME280;62287;50.858;0.252;2023-07-20T00:17:14;101424.89;;;19.57;41.96
73936;BME280;62287;50.858;0.252;2023-07-20T00:17:45;101426.70;;;19.64;41.88
73936;BME280;62287;50.858;0.252;2023-07-20T00:18:16;101423.89;;;19.44;41.72
73936;BME280;62287;50.858;0.252;2023-07-20T00:18:47;101426.32;;;19.22;41.65
73936;BME280;62287;50.858;0.252;2023-07-20T00:19:18;101426.89;;;19.63;41.57
73936;BME280;62287;50.858;0.252;2023-07-20T00:19:49;101424.55;;;19.22;41.59
73936;BME280;62287;50.858;0.252;2023-07-20T00:20:22;101423.55;;;19.26;41.46
73936;BME280;62287;50.858;0.252;2023-07-20T00:20:53;101423.03;;;19.71;41.39
73936;BME280;62287;50.858;0.252;2023-07-20T00:21:24;101422.56;;;19.89;41.22
73936;BME280;62287;50.858;0.252;2023-07-20T00:21:56;101421.36;;;20.34;41.05
73936;BME280;62287;50.858;0.252;2023-07-20T00:22:27;101423.56;;;19.97;41.07
73936;BME280;62287;50.858;0.252;2023-07-20T00:22:58;101421.92;;;19.99;41.00
73936;BME280;62287;50.858;0.252;2023-07-20T00:23:29;101421.17;;;19.89;41.13
73936;BME280;62287;50.858;0.252;2023-07-20T00:24:03;101421.01;;;19.92;41.11
73936;BME280;62287;50.858;0.252;2023-07-20T00:24:34;101422.17;;;19.97;41.10
73936;BME280;62287;50.858;0.252;2023-07-20T00:25:05;101421.75;;;20.35;41.20
73936;BME280;62287;50.858;0.252;2023-07-20T00:25:36;101421.23;;;19.87;41.22
73936;BME280;62287;50.858;0.252;2023-07-20T00:26:07;101421.08;;;20.26;41.31
73936;BME280;62287;50.858;0.252;2023-07-20T00:26:38;101419.90;;;20.16;41.34
73936;BME280;62287;50.858;0.252;2023-07-20T00:27:09;101420.60;;;20.09;41.38
73936;BME280;62287;50.858;0.252;2023-07-20T00:27:40;101421.50;;;20.21;41.34
73936;BME280;62287;50.858;0.252;2023-07-20T00:28:11;101419.73;;;20.33;41.17
73936;BME280;62287;50.858;0.252;2023-07-20T00:28:43;101420.12;;;20.41;41.13
73936;BME280;62287;50.858;0.252;2023-07-20T00:29:14;101421.26;;;19.66;41.19
73936;BME280;62287;50.858;0.252;2023-07-20T00:29:45;101419.67;;;19.86;41.32
73936;BME280;62287;50.858;0.252;2023-07-20T00:30:16;101419.39;;;19.92;41.44
73936;BME280;62287;50.858;0.252;2023-07-20T00:30:47;101419.88;;;19.83;41.29
73936;BME280;62287;50.858;0.252;2023-07-20T00:31:19;101418.13;;;19.68;41.20
73936;BME280;62287;50.858;0.252;2023-07-20T00:31:49;101417.36;;;19.97;41.35
73936;BME280;62287;50.858;0.252;2023-07-20T00:32:20;101417.10;;;19.96;41.38
73936;BME280;62287;50.858;0.252;2023-07-20T00:32:51;101419.57;;;20.26;41.41
73936;BME280;62287;50.858;0.252;2023-07-20T00:33:22;101418.04;;;19.97;41.46
73936;BME280;62287;50.858;0.252;2023-07-20T00:33:53;101417.63;;;19.52;41.29
73936;BME280;62287;50.858;0.252;2023-07-20T00:34:24;101417.62;;;20.07;41.32
73936;BME280;62287;50.858;0.252;2023-07-20T00:34:56;101417.69;;;19.42;41.43
73936;BME280;62287;50.858;0.252;2023-07-20T00:35:27;101417.51;;;19.75;41.46
73936;BME280;62287;50.858;0.252;2023-07-20T00:35:58;101416.28;;;19.53;41.32
73936;BME280;62287;50.858;0.252;2023-07-20T00:36:29;101417.08;;;19.46;41.19
73936;BME280;62287;50.858;0.252;2023-07-20T00:37:03;101418.64;;;19.73;41.14
73936;BME280;62287;50.858;0.252;2023-07-20T00:37:34;101416.18;;;19.76;41.14
73936;BME280;62287;50.858;0.252;2023-07-20T00:38:05;101416.31;;;19.68;41.19
73936;BME280;62287;50.858;0.252;2023-07-20T00:38:36;101416.72;;;19.45;41.06
73936;BME280;62287;50.858;0.252;2023-07-20T00:39:08;101416.09;;;19.19;41.32
73936;BME280;62287;50.858;0.252;2023-07-20T00:39:39;101415.03;;;19.75;41.23
73936;BME280;62287;50.858;0.252;2023-07-20T00:40:11;101414.47;;;19.57;41.38
73936;BME280;62287;50.858;0.252;2023-07-20T00:40:42;101413.59;;;19.31;41.36
73936;BME280;62287;50.858;0.252;2023-07-20T00:41:13;101415.83;;;19.11;41.44
73936;BME280;62287;50.858;0.252;2023-07-20T00:41:45;101412.44;;;19.01;41.45
73936;BME280;62287;50.858;0.252;2023-07-20T00:42:16;101413.14;;;19.31;41.53
73936;BME280;62287;50.858;0.252;2023-07-20T00:42:48;101413.50;;;18.93;41.44
73936;BME280;62287;50.858;0.252;2023-07-20T00:43:19;101412.12;;;19.39;41.47
73936;BME280;62287;50.858;0.252;2023-07-20T00:43:51;101411.46;;;19.56;41.38
73936;BME280;62287;50.858;0.252;2023-07-20T00:44:23;101411.68;;;19.21;41.59
73936;BME280;62287;50.858;0.252;2023-07-20T00:44:54;101412.91;;;19.29;41.49
73936;BME280;62287;50.858;0.252;2023-07-20T00:45:25;101412.74;;;19.52;41.23
73936;BME280;62287;50.858;0.252;2023-07-20T00:45:56;101412.98;;;19.37;41.26
73936;BME280;62287;50.858;0.252;2023-07-20T00:46:28;101413.59;;;19.21;41.10
73936;BME280;62287;50.858;0.252;2023-07-20T00:46:59;101412.92;;;19.39;41.19
73936;BME280;62287;50.858;0.252;2023-07-20T00:47:31;101414.85;;;19.37;41.13
73936;BME280;62287;50.858;0.252;2023-07-20T00:48:04;101415.38;;;18.91;41.06
73936;BME280;62287;50.858;0.252;2023-07-20T00:48:36;101416.39;;;19.19;40.98
73936;BME280;62287;50.858;0.252;2023-07-20T00:49:09;101416.22;;;19.10;41.09
73936;BME280;62287;50.858;0.252;2023-07-20T00:49:40;101417.47;;;18.86;41.30
73936;BME280;62287;50.858;0.252;2023-07-20T00:50:11;101417.52;;;19.08;41.25
73936;BME280;62287;50.858;0.252;2023-07-20T00:50:42;101417.79;;;19.54;41.13
73936;BME280;62287;50.858;0.252;2023-07-20T00:51:15;101416.81;;;19.07;41.32
73936;BME280;62287;50.858;0.252;2023-07-20T00:51:46;101417.11;;;19.58;41.36
73936;BME280;62287;50.858;0.252;2023-07-20T00:52:19;101414.40;;;19.32;41.29
73936;BME280;62287;50.858;0.252;2023-07-20T00:52:51;101414.17;;;19.43;41.09
73936;BME280;62287;50.858;0.252;2023-07-20T00:53:22;101415.67;;;19.57;41.09
73936;BME280;62287;50.858;0.252;2023-07-20T00:53:53;101415.04;;;19.55;41.32
73936;BME280;62287;50.858;0.252;2023-07-20T00:54:24;101415.87;;;19.74;41.25
73936;BME280;62287;50.858;0.252;2023-07-20T00:54:56;101414.59;;;19.60;41.19
73936;BME280;62287;50.858;0.252;2023-07-20T00:55:28;101415.99;;;19.22;41.06
73936;BME280;62287;50.858;0.252;2023-07-20T00:56:00;101417.62;;;18.54;41.28
73936;BME280;62287;50.858;0.252;2023-07-20T00:56:31;101418.62;;;19.36;41.26
73936;BME280;62287;50.858;0.252;2023-07-20T00:57:03;101417.15;;;18.97;41.38
73936;BME280;62287;50.858;0.252;2023-07-20T00:57:35;101417.22;;;19.08;41.27
73936;BME280;62287;50.858;0.252;2023-07-20T00:58:06;101416.93;;;19.14;41.24
73936;BME280;62287;50.858;0.252;2023-07-20T00:58:37;101415.56;;;19.05;41.31
73936;BME280;62287;50.858;0.252;2023-07-20T00:59:09;101415.11;;;19.37;41.09
73936;BME280;62287;50.858;0.252;2023-07-20T00:59:40;101414.60;;;19.35;41.12
73936;BME280;62287;50.858;0.252;2023-07-20T01:00:12;101414.10;;;19.31;41.09
73936;BME280;62287;50.858;0.252;2023-07-20T01:00:44;101414.46;;;19.62;41.19
73936;BME280;62287;50.858;0.252;2023-07-20T01:01:15;101414.48;;;19.57;41.24
73936;BME280;62287;50.858;0.252;2023-07-20T01:01:46;101415.27;;;19.09;41.32
73936;BME280;62287;50.858;0.252;2023-07-20T01:02:16;101415.96;;;19.32;41.28
73936;BME280;62287;50.858;0.252;2023-07-20T01:02:47;101417.27;;;19.45;40.94
73936;BME280;62287;50.858;0.252;2023-07-20T01:03:19;101418.45;;;18.83;41.03
73936;BME280;62287;50.858;0.252;2023-07-20T01:03:50;101419.57;;;18.84;41.01
73936;BME280;62287;50.858;0.252;2023-07-20T01:04:21;101418.02;;;18.60;41.28
73936;BME280;62287;50.858;0.252;2023-07-20T01:04:52;101416.93;;;18.56;41.18
73936;BME280;62287;50.858;0.252;2023-07-20T01:05:27;101418.12;;;18.99;41.40
73936;BME280;62287;50.858;0.252;2023-07-20T01:06:12;101415.79;;;19.00;41.53
73936;BME280;62287;50.858;0.252;2023-07-20T01:06:48;101414.77;;;18.79;41.38
73936;BME280;62287;50.858;0.252;2023-07-20T01:07:26;101410.85;;;19.10;41.42
73936;BME280;62287;50.858;0.252;2023-07-20T01:08:07;101410.02;;;19.20;41.35
73936;BME280;62287;50.858;0.252;2023-07-20T01:08:45;101410.96;;;19.15;41.34
73936;BME280;62287;50.858;0.252;2023-07-20T01:09:26;101409.28;;;18.46;41.19
73936;BME280;62287;50.858;0.252;2023-07-20T01:10:09;101408.58;;;18.99;41.12
73936;BME280;62287;50.858;0.252;2023-07-20T01:10:46;101409.02;;;19.10;41.14
73936;BME280;62287;50.858;0.252;2023-07-20T01:11:27;101407.92;;;19.35;40.92
73936;BME280;62287;50.858;0.252;2023-07-20T01:12:05;101407.44;;;19.40;40.90
73936;BME280;62287;50.858;0.252;2023-07-20T01:12:42;101406.59;;;18.91;40.89
73936;BME280;62287;50.858;0.252;2023-07-20T01:13:15;101406.60;;;18.89;40.93
73936;BME280;62287;50.858;0.252;2023-07-20T01:13:48;101407.81;;;19.11;40.92
73936;BME280;62287;50.858;0.252;2023-07-20T01:14:21;101406.87;;;18.80;40.80
73936;BME280;62287;50.858;0.252;2023-07-20T01:14:53;101406.79;;;19.04;41.06
73936;BME280;62287;50.858;0.252;2023-07-20T01:15:25;101409.76;;;18.57;40.92
73936;BME280;62287;50.858;0.252;2023-07-20T01:15:57;101408.70;;;18.89;41.10
73936;BME280;62287;50.858;0.252;2023-07-20T01:16:33;101410.90;;;18.86;40.95
73936;BME280;62287;50.858;0.252;2023-07-20T01:17:04;101409.57;;;18.59;40.67
73936;BME280;62287;50.858;0.252;2023-07-20T01:17:35;101408.24;;;18.20;40.74
73936;BME280;62287;50.858;0.252;2023-07-20T01:18:07;101408.38;;;19.10;40.99
73936;BME280;62287;50.858;0.252;2023-07-20T01:18:38;101408.55;;;18.93;40.76
73936;BME280;62287;50.858;0.252;2023-07-20T01:19:09;101410.40;;;19.02;41.07
73936;BME280;62287;50.858;0.252;2023-07-20T01:19:41;101408.92;;;18.61;40.95
73936;BME280;62287;50.858;0.252;2023-07-20T01:20:14;101408.66;;;18.93;40.95
73936;BME280;62287;50.858;0.252;2023-07-20T01:20:46;101408.21;;;18.61;41.05
73936;BME280;62287;50.858;0.252;2023-07-20T01:21:27;101408.74;;;18.39;40.82
73936;BME280;62287;50.858;0.252;2023-07-20T01:22:03;101409.12;;;18.87;40.77
73936;BME280;62287;50.858;0.252;2023-07-20T01:24:05;101408.79;;;18.74;40.93
73936;BME280;62287;50.858;0.252;2023-07-20T01:24:56;101407.38;;;18.65;41.04
73936;BME280;62287;50.858;0.252;2023-07-20T01:25:45;101407.54;;;18.51;40.63
73936;BME280;62287;50.858;0.252;2023-07-20T01:26:59;101407.06;;;18.74;41.02
73936;BME280;62287;50.858;0.252;2023-07-20T01:27:49;101407.07;;;17.59;41.42
73936;BME280;62287;50.858;0.252;2023-07-20T01:28:37;101406.89;;;18.34;41.39
73936;BME280;62287;50.858;0.252;2023-07-20T01:29:22;101404.47;;;18.62;41.24
73936;BME280;62287;50.858;0.252;2023-07-20T01:30:08;101405.40;;;18.58;41.11
73936;BME280;62287;50.858;0.252;2023-07-20T01:30:52;101402.76;;;19.00;40.99
73936;BME280;62287;50.858;0.252;2023-07-20T01:31:28;101402.03;;;18.99;40.87
73936;BME280;62287;50.858;0.252;2023-07-20T01:32:02;101400.50;;;18.68;40.98
73936;BME280;62287;50.858;0.252;2023-07-20T01:32:35;101403.22;;;18.86;41.00
73936;BME280;62287;50.858;0.252;2023-07-20T01:33:08;101402.02;;;18.94;40.82
73936;BME280;62287;50.858;0.252;2023-07-20T01:33:41;101401.78;;;18.53;40.89
73936;BME280;62287;50.858;0.252;2023-07-20T01:34:16;101401.88;;;18.91;40.89
73936;BME280;62287;50.858;0.252;2023-07-20T01:34:49;101401.91;;;18.84;40.77
73936;BME280;62287;50.858;0.252;2023-07-20T01:35:24;101400.90;;;18.88;40.85
73936;BME280;62287;50.858;0.252;2023-07-20T01:35:58;101401.06;;;18.90;40.87
73936;BME280;62287;50.858;0.252;2023-07-20T01:36:35;101402.74;;;18.57;40.71
73936;BME280;62287;50.858;0.252;2023-07-20T01:37:07;101404.66;;;19.36;40.51
73936;BME280;62287;50.858;0.252;2023-07-20T01:37:39;101402.38;;;18.81;40.59
73936;BME280;62287;50.858;0.252;2023-07-20T01:38:13;101402.18;;;18.87;40.40
73936;BME280;62287;50.858;0.252;2023-07-20T01:38:45;101403.68;;;18.78;40.72
73936;BME280;62287;50.858;0.252;2023-07-20T01:39:19;101402.67;;;18.60;40.93
73936;BME280;62287;50.858;0.252;2023-07-20T01:39:53;101404.22;;;18.55;40.82
73936;BME280;62287;50.858;0.252;2023-07-20T01:40:25;101403.65;;;18.66;40.90
73936;BME280;62287;50.858;0.252;2023-07-20T01:40:57;101404.17;;;18.63;40.79
73936;BME280;62287;50.858;0.252;2023-07-20T01:41:33;101402.57;;;18.78;40.80
73936;BME280;62287;50.858;0.252;2023-07-20T01:42:05;101402.22;;;18.50;40.93
73936;BME280;62287;50.858;0.252;2023-07-20T01:42:37;101404.10;;;18.54;40.76
73936;BME280;62287;50.858;0.252;2023-07-20T01:43:08;101403.45;;;18.37;40.95
73936;BME280;62287;50.858;0.252;2023-07-20T01:43:38;101403.27;;;18.86;40.91
73936;BME280;62287;50.858;0.252;2023-07-20T01:44:10;101404.19;;;18.60;40.73
73936;BME280;62287;50.858;0.252;2023-07-20T01:44:41;101402.71;;;18.83;40.89
73936;BME280;62287;50.858;0.252;2023-07-20T01:45:12;101404.18;;;18.88;40.73
73936;BME280;62287;50.858;0.252;2023-07-20T01:45:43;101403.16;;;18.43;40.92
73936;BME280;62287;50.858;0.252;2023-07-20T01:46:14;101406.33;;;18.80;40.85
73936;BME280;62287;50.858;0.252;2023-07-20T01:46:45;101402.78;;;18.75;40.79
73936;BME280;62287;50.858;0.252;2023-07-20T01:47:16;101405.21;;;18.96;40.79
73936;BME280;62287;50.858;0.252;2023-07-20T01:47:47;101406.02;;;18.63;40.81
73936;BME280;62287;50.858;0.252;2023-07-20T01:48:18;101406.61;;;18.67;40.68
73936;BME280;62287;50.858;0.252;2023-07-20T01:48:49;101407.59;;;18.66;40.72
73936;BME280;62287;50.858;0.252;2023-07-20T01:49:20;101405.76;;;18.70;40.37
73936;BME280;62287;50.858;0.252;2023-07-20T01:49:51;101406.07;;;19.00;40.57
73936;BME280;62287;50.858;0.252;2023-07-20T01:50:23;101404.94;;;18.67;40.76
73936;BME280;62287;50.858;0.252;2023-07-20T01:50:54;101403.54;;;18.76;40.70
73936;BME280;62287;50.858;0.252;2023-07-20T01:51:25;101404.60;;;19.02;40.54
73936;BME280;62287;50.858;0.252;2023-07-20T01:51:56;101405.99;;;18.88;40.47
73936;BME280;62287;50.858;0.252;2023-07-20T01:52:27;101404.06;;;18.52;40.59
73936;BME280;62287;50.858;0.252;2023-07-20T01:52:59;101402.06;;;18.22;40.54
73936;BME280;62287;50.858;0.252;2023-07-20T01:53:30;101401.64;;;18.22;40.56
73936;BME280;62287;50.858;0.252;2023-07-20T01:54:03;101402.75;;;18.75;40.30
73936;BME280;62287;50.858;0.252;2023-07-20T01:54:34;101402.72;;;18.73;40.52
73936;BME280;62287;50.858;0.252;2023-07-20T01:55:06;101401.65;;;18.45;40.26
73936;BME280;62287;50.858;0.252;2023-07-20T01:55:38;101400.95;;;18.31;40.25
73936;BME280;62287;50.858;0.252;2023-07-20T01:56:09;101399.89;;;18.33;40.42
73936;BME280;62287;50.858;0.252;2023-07-20T01:56:40;101400.20;;;18.31;40.35
73936;BME280;62287;50.858;0.252;2023-07-20T01:57:11;101398.73;;;18.64;40.70
73936;BME280;62287;50.858;0.252;2023-07-20T01:57:42;101398.86;;;18.63;40.64
73936;BME280;62287;50.858;0.252;2023-07-20T01:58:13;101400.26;;;18.54;40.66
73936;BME280;62287;50.858;0.252;2023-07-20T01:58:44;101399.35;;;18.65;40.66
73936;BME280;62287;50.858;0.252;2023-07-20T01:59:15;101400.03;;;18.63;40.57
73936;BME280;62287;50.858;0.252;2023-07-20T01:59:46;101397.85;;;18.64;40.52
73936;BME280;62287;50.858;0.252;2023-07-20T02:00:18;101400.58;;;18.90;40.68
73936;BME280;62287;50.858;0.252;2023-07-20T02:00:51;101398.13;;;18.46;40.72
73936;BME280;62287;50.858;0.252;2023-07-20T02:01:28;101397.96;;;18.51;40.83
73936;BME280;62287;50.858;0.252;2023-07-20T02:01:59;101398.60;;;18.33;41.02
73936;BME280;62287;50.858;0.252;2023-07-20T02:02:30;101399.36;;;18.24;40.86
73936;BME280;62287;50.858;0.252;2023-07-20T02:03:02;101397.28;;;18.21;41.12
73936;BME280;62287;50.858;0.252;2023-07-20T02:03:33;101396.70;;;18.26;41.24
73936;BME280;62287;50.858;0.252;2023-07-20T02:04:04;101396.40;;;18.31;41.27
73936;BME280;62287;50.858;0.252;2023-07-20T02:04:35;101395.89;;;18.19;41.44
73936;BME280;62287;50.858;0.252;2023-07-20T02:05:07;101393.86;;;17.98;41.67
73936;BME280;62287;50.858;0.252;2023-07-20T02:05:38;101392.99;;;17.71;41.57
73936;BME280;62287;50.858;0.252;2023-07-20T02:06:14;101391.39;;;18.15;41.39
73936;BME280;62287;50.858;0.252;2023-07-20T02:06:45;101393.65;;;18.20;41.45
73936;BME280;62287;50.858;0.252;2023-07-20T02:07:16;101393.57;;;18.13;41.64
73936;BME280;62287;50.858;0.252;2023-07-20T02:07:51;101394.20;;;18.23;41.45
73936;BME280;62287;50.858;0.252;2023-07-20T02:08:24;101393.27;;;18.02;41.65
73936;BME280;62287;50.858;0.252;2023-07-20T02:08:56;101394.48;;;18.17;41.54
73936;BME280;62287;50.858;0.252;2023-07-20T02:09:27;101394.06;;;17.95;41.51
73936;BME280;62287;50.858;0.252;2023-07-20T02:09:59;101394.56;;;18.35;41.34
73936;BME280;62287;50.858;0.252;2023-07-20T02:10:30;101395.53;;;18.31;41.38
73936;BME280;62287;50.858;0.252;2023-07-20T02:11:06;101395.17;;;18.73;41.38
73936;BME280;62287;50.858;0.252;2023-07-20T02:11:37;101395.55;;;18.43;41.38
73936;BME280;62287;50.858;0.252;2023-07-20T02:12:09;101394.92;;;18.54;41.13
73936;BME280;62287;50.858;0.252;2023-07-20T02:12:41;101393.58;;;18.28;41.30
73936;BME280;62287;50.858;0.252;2023-07-20T02:13:14;101392.65;;;18.01;41.71
73936;BME280;62287;50.858;0.252;2023-07-20T02:13:47;101392.05;;;18.06;41.56
73936;BME280;62287;50.858;0.252;2023-07-20T02:14:19;101394.61;;;18.08;41.64
73936;BME280;62287;50.858;0.252;2023-07-20T02:14:50;101392.14;;;17.64;41.71
73936;BME280;62287;50.858;0.252;2023-07-20T02:15:21;101393.38;;;18.01;41.71
73936;BME280;62287;50.858;0.252;2023-07-20T02:15:52;101391.50;;;17.68;41.63
73936;BME280;62287;50.858;0.252;2023-07-20T02:16:28;101393.20;;;17.79;41.63
73936;BME280;62287;50.858;0.252;2023-07-20T02:17:00;101395.22;;;18.24;41.52
73936;BME280;62287;50.858;0.252;2023-07-20T02:17:31;101394.85;;;18.19;41.61
73936;BME280;62287;50.858;0.252;2023-07-20T02:18:03;101394.07;;;18.09;41.40
73936;BME280;62287;50.858;0.252;2023-07-20T02:18:34;101394.49;;;17.94;41.57
73936;BME280;62287;50.858;0.252;2023-07-20T02:19:05;101395.62;;;17.89;41.65
73936;BME280;62287;50.858;0.252;2023-07-20T02:19:36;101393.98;;;17.60;41.65
73936;BME280;62287;50.858;0.252;2023-07-20T02:20:08;101395.89;;;18.00;41.52
73936;BME280;62287;50.858;0.252;2023-07-20T02:20:45;101396.51;;;18.14;41.16
73936;BME280;62287;50.858;0.252;2023-07-20T02:21:16;101398.15;;;18.58;41.17
73936;BME280;62287;50.858;0.252;2023-07-20T02:21:47;101398.35;;;18.12;41.28
73936;BME280;62287;50.858;0.252;2023-07-20T02:22:18;101396.57;;;18.36;41.29
73936;BME280;62287;50.858;0.252;2023-07-20T02:22:48;101396.37;;;18.38;41.45
73936;BME280;62287;50.858;0.252;2023-07-20T02:23:21;101398.03;;;18.67;41.25
73936;BME280;62287;50.858;0.252;2023-07-20T02:23:51;101396.60;;;18.71;41.22
73936;BME280;62287;50.858;0.252;2023-07-20T02:24:22;101398.92;;;18.91;41.07
73936;BME280;62287;50.858;0.252;2023-07-20T02:24:59;101399.67;;;18.33;41.02
73936;BME280;62287;50.858;0.252;2023-07-20T02:25:29;101399.64;;;18.81;40.96
73936;BME280;62287;50.858;0.252;2023-07-20T02:26:02;101399.58;;;18.43;40.84
73936;BME280;62287;50.858;0.252;2023-07-20T02:26:33;101400.02;;;18.43;41.08
73936;BME280;62287;50.858;0.252;2023-07-20T02:27:05;101401.85;;;18.96;40.80
73936;BME280;62287;50.858;0.252;2023-07-20T02:27:37;101399.16;;;18.89;40.92
73936;BME280;62287;50.858;0.252;2023-07-20T02:28:08;101400.98;;;18.94;40.85
73936;BME280;62287;50.858;0.252;2023-07-20T02:28:39;101402.34;;;18.65;40.76
73936;BME280;62287;50.858;0.252;2023-07-20T02:29:10;101400.33;;;18.92;40.82
73936;BME280;62287;50.858;0.252;2023-07-20T02:29:42;101401.53;;;18.84;40.82
73936;BME280;62287;50.858;0.252;2023-07-20T02:30:13;101399.51;;;19.09;40.67
73936;BME280;62287;50.858;0.252;2023-07-20T02:30:44;101399.67;;;19.10;40.60
73936;BME280;62287;50.858;0.252;2023-07-20T02:31:14;101395.63;;;19.17;40.51
73936;BME280;62287;50.858;0.252;2023-07-20T02:31:45;101398.26;;;19.16;40.57
73936;BME280;62287;50.858;0.252;2023-07-20T02:32:17;101397.68;;;19.13;40.53
73936;BME280;62287;50.858;0.252;2023-07-20T02:32:48;101396.92;;;19.16;40.51
73936;BME280;62287;50.858;0.252;2023-07-20T02:33:19;101397.19;;;19.07;40.57
73936;BME280;62287;50.858;0.252;2023-07-20T02:33:50;101395.13;;;19.03;40.59
73936;BME280;62287;50.858;0.252;2023-07-20T02:34:21;101395.52;;;19.00;40.58
73936;BME280;62287;50.858;0.252;2023-07-20T02:34:52;101394.09;;;18.16;40.50
73936;BME280;62287;50.858;0.252;2023-07-20T02:35:23;101393.39;;;18.53;40.78
73936;BME280;62287;50.858;0.252;2023-07-20T02:35:54;101393.52;;;19.07;40.70
73936;BME280;62287;50.858;0.252;2023-07-20T02:36:25;101391.96;;;18.88;40.72
73936;BME280;62287;50.858;0.252;2023-07-20T02:36:56;101393.24;;;19.05;40.60
73936;BME280;62287;50.858;0.252;2023-07-20T02:37:27;101393.03;;;18.80;40.55
73936;BME280;62287;50.858;0.252;2023-07-20T02:37:58;101393.28;;;18.78;40.53
73936;BME280;62287;50.858;0.252;2023-07-20T02:38:29;101393.77;;;19.23;40.55
73936;BME280;62287;50.858;0.252;2023-07-20T02:39:00;101394.37;;;18.95;40.49
73936;BME280;62287;50.858;0.252;2023-07-20T02:39:31;101393.05;;;19.11;40.38
73936;BME280;62287;50.858;0.252;2023-07-20T02:40:04;101393.99;;;19.17;40.32
73936;BME280;62287;50.858;0.252;2023-07-20T02:40:36;101393.64;;;19.35;40.34
73936;BME280;62287;50.858;0.252;2023-07-20T02:41:07;101392.84;;;19.42;40.42
73936;BME280;62287;50.858;0.252;2023-07-20T02:41:38;101394.53;;;19.26;40.45
73936;BME280;62287;50.858;0.252;2023-07-20T02:42:09;101394.73;;;19.40;40.45
73936;BME280;62287;50.858;0.252;2023-07-20T02:42:40;101395.54;;;19.47;40.35
73936;BME280;62287;50.858;0.252;2023-07-20T02:43:11;101394.27;;;19.52;40.34
73936;BME280;62287;50.858;0.252;2023-07-20T02:43:43;101395.28;;;19.31;40.19
73936;BME280;62287;50.858;0.252;2023-07-20T02:44:14;101395.79;;;19.40;40.14
73936;BME280;62287;50.858;0.252;2023-07-20T02:44:45;101393.51;;;19.32;40.19
73936;BME280;62287;50.858;0.252;2023-07-20T02:45:16;101395.71;;;19.74;40.13
73936;BME280;62287;50.858;0.252;2023-07-20T02:45:47;101393.42;;;19.72;40.12
73936;BME280;62287;50.858;0.252;2023-07-20T02:46:18;101393.00;;;19.43;39.99
73936;BME280;62287;50.858;0.252;2023-07-20T02:46:49;101393.06;;;19.54;39.95
73936;BME280;62287;50.858;0.252;2023-07-20T02:47:22;101392.48;;;19.42;40.02
73936;BME280;62287;50.858;0.252;2023-07-20T02:47:52;101392.24;;;18.96;39.99
73936;BME280;62287;50.858;0.252;2023-07-20T02:48:23;101390.59;;;19.35;40.02
73936;BME280;62287;50.858;0.252;2023-07-20T02:48:55;101392.15;;;19.70;39.88
73936;BME280;62287;50.858;0.252;2023-07-20T02:49:26;101388.98;;;19.30;40.19
73936;BME280;62287;50.858;0.252;2023-07-20T02:49:57;101386.90;;;18.95;40.34
73936;BME280;62287;50.858;0.252;2023-07-20T02:50:28;101387.05;;;19.27;40.35
73936;BME280;62287;50.858;0.252;2023-07-20T02:50:59;101388.14;;;19.01;40.35
73936;BME280;62287;50.858;0.252;2023-07-20T02:51:29;101388.60;;;19.07;40.46